Time;durP1;ratioP1;P1;durP2;ratioP2;P2;SDS_P1;SDS_P2;PMS_P1;PMS_P2;Temp;Humidity;BMP_temperature;BMP_pressure;BME280_temperature;BME280_humidity;BME280_pressure;Samples;Min_cycle;Max_cycle;Signal;HPM_P1;HPM_P2
2023/04/23 00:02:15;;;;;;;;;;;7.60;99.90;;;;;;5095796;28;20413;-65
2023/04/23 00:04:46;;;;;;;;;;;7.60;99.90;;;;;;5096353;28;20433;-65
2023/04/23 00:07:13;;;;;;;;;;;7.40;99.90;;;;;;5095807;28;20281;-65
2023/04/23 00:09:39;;;;;;;;;;;7.40;99.90;;;;;;5096505;28;19912;-65
2023/04/23 00:12:06;;;;;;;;;;;7.30;99.90;;;;;;5095943;28;20305;-65
2023/04/23 00:14:32;;;;;;;;;;;7.30;99.90;;;;;;5095913;28;19918;-65
2023/04/23 00:16:58;;;;;;;;;;;7.30;99.90;;;;;;5096112;28;20347;-65
2023/04/23 00:19:23;;;;;;;;;;;7.20;99.90;;;;;;5096035;28;19916;-65
2023/04/23 00:21:50;;;;;;;;;;;7.30;99.90;;;;;;5095972;28;19926;-65
2023/04/23 00:24:16;;;;;;;;;;;7.30;99.90;;;;;;5095953;28;19912;-65
2023/04/23 00:26:41;;;;;;;;;;;7.20;99.90;;;;;;5095813;28;20376;-65
2023/04/23 00:29:07;;;;;;;;;;;7.40;99.90;;;;;;5095837;28;19962;-65
2023/04/23 00:31:33;;;;;;;;;;;7.30;99.90;;;;;;5095715;28;20381;-65
2023/04/23 00:33:59;;;;;;;;;;;7.30;99.90;;;;;;5095717;28;19916;-65
2023/04/23 00:36:25;;;;;;;;;;;7.30;99.90;;;;;;5095744;28;19916;-65
2023/04/23 00:38:51;;;;;;;;;;;7.20;99.90;;;;;;5095820;28;19912;-65
2023/04/23 00:41:16;;;;;;;;;;;7.20;99.90;;;;;;5095730;28;19943;-65
2023/04/23 00:43:43;;;;;;;;;;;7.10;99.90;;;;;;5077443;28;19919;-65
2023/04/23 00:46:09;;;;;;;;;;;7.20;99.90;;;;;;5077413;28;19933;-65
2023/04/23 00:48:36;;;;;;;;;;;7.20;99.90;;;;;;5095519;28;20377;-65
2023/04/23 00:51:02;;;;;;;;;;;7.20;99.90;;;;;;5095379;28;19912;-65
2023/04/23 00:53:29;;;;;;;;;;;7.10;99.90;;;;;;5077388;28;19981;-65
2023/04/23 00:55:55;;;;;;;;;;;7.10;99.90;;;;;;5095218;28;19931;-65
2023/04/23 00:58:21;;;;;;;;;;;7.00;99.90;;;;;;5095341;28;19912;-65
2023/04/23 01:00:48;;;;;;;;;;;7.00;99.90;;;;;;5095117;28;19913;-65
2023/04/23 01:03:15;;;;;;;;;;;7.00;99.90;;;;;;5095059;28;19916;-65
2023/04/23 01:05:41;;;;;;;;;;;7.00;99.90;;;;;;5077077;28;19916;-65
2023/04/23 01:08:09;;;;;;;;;;;6.90;99.90;;;;;;5077018;28;20242;-65
2023/04/23 01:10:35;;;;;;;;;;;6.80;99.90;;;;;;5095067;28;19916;-65
2023/04/23 01:13:01;;;;;;;;;;;6.70;99.90;;;;;;5077046;28;19912;-65
2023/04/23 01:15:26;;;;;;;;;;;6.70;99.90;;;;;;5095081;28;19916;-65
2023/04/23 01:17:52;;;;;;;;;;;6.60;99.90;;;;;;5095028;28;19969;-65
2023/04/23 01:20:18;;;;;;;;;;;6.60;99.90;;;;;;5076156;28;20163;-65
2023/04/23 01:22:44;;;;;;;;;;;6.60;99.90;;;;;;5095130;28;19916;-65
2023/04/23 01:25:10;;;;;;;;;;;6.50;99.90;;;;;;5095067;28;20315;-65
2023/04/23 01:27:37;;;;;;;;;;;6.50;99.90;;;;;;5094855;28;19912;-65
2023/04/23 01:30:04;;;;;;;;;;;6.50;99.90;;;;;;5094934;28;20370;-65
2023/04/23 01:32:31;;;;;;;;;;;6.50;99.90;;;;;;5094829;28;20369;-65
2023/04/23 01:34:57;;;;;;;;;;;6.40;99.90;;;;;;5094898;28;20261;-65
2023/04/23 01:37:23;;;;;;;;;;;6.40;99.90;;;;;;5095019;28;19919;-65
2023/04/23 01:39:50;;;;;;;;;;;6.30;99.90;;;;;;5076705;28;19923;-65
2023/04/23 01:42:16;;;;;;;;;;;6.30;99.90;;;;;;5095002;28;19924;-65
2023/04/23 01:44:42;;;;;;;;;;;6.20;99.90;;;;;;5094937;28;20319;-65
2023/04/23 01:47:08;;;;;;;;;;;6.10;99.90;;;;;;5076588;28;19919;-65
2023/04/23 01:49:33;;;;;;;;;;;6.10;99.90;;;;;;5076747;28;19915;-65
2023/04/23 01:51:59;;;;;;;;;;;6.10;99.90;;;;;;5094625;28;19916;-65
2023/04/23 01:54:25;;;;;;;;;;;6.10;99.90;;;;;;5095020;28;20261;-65
2023/04/23 01:56:53;;;;;;;;;;;6.10;99.90;;;;;;5076330;28;19959;-65
2023/04/23 01:59:21;;;;;;;;;;;6.00;99.90;;;;;;5076627;28;19919;-65
2023/04/23 02:01:47;;;;;;;;;;;6.10;99.90;;;;;;5094585;28;19918;-65
2023/04/23 02:04:14;;;;;;;;;;;6.10;99.90;;;;;;5110270;28;19973;-65
2023/04/23 02:06:41;;;;;;;;;;;6.20;99.90;;;;;;5094599;28;19979;-65
2023/04/23 02:09:07;;;;;;;;;;;6.10;99.90;;;;;;5094524;28;19919;-65
2023/04/23 02:11:33;;;;;;;;;;;6.10;99.90;;;;;;5076459;28;19913;-65
2023/04/23 02:13:59;;;;;;;;;;;6.20;99.90;;;;;;5094524;28;19920;-65
2023/04/23 02:16:27;;;;;;;;;;;6.20;99.90;;;;;;5094440;28;19958;-65
2023/04/23 02:18:53;;;;;;;;;;;6.10;99.90;;;;;;5094473;28;19908;-65
2023/04/23 02:21:19;;;;;;;;;;;6.00;99.90;;;;;;5094606;28;19920;-65
2023/04/23 02:23:45;;;;;;;;;;;6.10;99.90;;;;;;5076434;28;19970;-65
2023/04/23 02:26:11;;;;;;;;;;;6.00;99.90;;;;;;5094374;28;19920;-65
2023/04/23 02:28:37;;;;;;;;;;;5.90;99.90;;;;;;5094501;28;20007;-65
2023/04/23 02:31:03;;;;;;;;;;;5.80;99.90;;;;;;5095630;28;19935;-65
2023/04/23 02:33:29;;;;;;;;;;;5.80;99.90;;;;;;5080046;28;19926;-65
2023/04/23 02:35:55;;;;;;;;;;;5.80;99.90;;;;;;5097979;28;19916;-65
2023/04/23 02:38:21;;;;;;;;;;;5.70;99.90;;;;;;5079828;28;19912;-65
2023/04/23 02:40:47;;;;;;;;;;;5.60;99.90;;;;;;5098049;28;19916;-65
2023/04/23 02:43:12;;;;;;;;;;;5.50;99.90;;;;;;5097792;28;19912;-65
2023/04/23 02:45:38;;;;;;;;;;;5.50;99.90;;;;;;5098266;28;20120;-65
2023/04/23 02:48:04;;;;;;;;;;;5.50;99.90;;;;;;5079888;28;20273;-65
2023/04/23 02:50:30;;;;;;;;;;;5.40;99.90;;;;;;5098116;28;19916;-65
2023/04/23 02:52:56;;;;;;;;;;;5.40;99.90;;;;;;5079560;28;20432;-65
2023/04/23 02:55:24;;;;;;;;;;;5.40;99.90;;;;;;5075943;28;19920;-65
2023/04/23 02:57:50;;;;;;;;;;;5.30;99.90;;;;;;5075752;28;20324;-65
2023/04/23 03:00:16;;;;;;;;;;;5.30;99.90;;;;;;5076057;28;19923;-65
2023/04/23 03:02:43;;;;;;;;;;;5.30;99.90;;;;;;5075580;28;20316;-65
2023/04/23 03:05:09;;;;;;;;;;;5.40;99.90;;;;;;5075971;28;19923;-65
2023/04/23 03:07:35;;;;;;;;;;;5.30;99.90;;;;;;5077079;28;19917;-65
2023/04/23 03:10:00;;;;;;;;;;;5.30;99.90;;;;;;5077073;28;19913;-65
2023/04/23 03:12:26;;;;;;;;;;;5.20;99.90;;;;;;5058999;28;19908;-65
2023/04/23 03:14:52;;;;;;;;;;;5.30;99.90;;;;;;5077014;28;19961;-65
2023/04/23 03:17:19;;;;;;;;;;;5.40;99.90;;;;;;5075816;28;19927;-65
2023/04/23 03:19:45;;;;;;;;;;;5.30;99.90;;;;;;5075649;28;19916;-65
2023/04/23 03:22:11;;;;;;;;;;;5.30;99.90;;;;;;5075505;28;19990;-65
2023/04/23 03:24:38;;;;;;;;;;;5.30;99.90;;;;;;5076940;28;19920;-65
2023/04/23 03:27:04;;;;;;;;;;;5.30;99.90;;;;;;5058952;28;19916;-65
2023/04/23 03:29:29;;;;;;;;;;;5.20;99.90;;;;;;5076839;28;19916;-65
2023/04/23 03:31:55;;;;;;;;;;;5.20;99.90;;;;;;5076677;28;19931;-65
2023/04/23 03:34:21;;;;;;;;;;;5.10;99.90;;;;;;5075512;28;20417;-65
2023/04/23 03:36:49;;;;;;;;;;;5.00;99.90;;;;;;5075216;28;20381;-65
2023/04/23 03:39:15;;;;;;;;;;;5.00;99.90;;;;;;5075146;28;20019;-65
2023/04/23 03:41:48;;;;;;;;;;;5.10;99.90;;;;;;5075023;28;20305;-65
2023/04/23 03:44:17;;;;;;;;;;;5.20;99.90;;;;;;5074668;28;20271;-65
2023/04/23 03:46:44;;;;;;;;;;;5.10;99.90;;;;;;5075298;28;20043;-65
2023/04/23 03:49:10;;;;;;;;;;;5.10;99.90;;;;;;5075217;28;20358;-65
2023/04/23 03:51:36;;;;;;;;;;;5.20;99.90;;;;;;5076272;28;19912;-65
2023/04/23 03:54:02;;;;;;;;;;;5.20;99.90;;;;;;5076108;28;19905;-64
2023/04/23 03:56:38;;;;;;;;;;;5.10;99.90;;;;;;5074811;28;19921;-65
2023/04/23 03:59:26;;;;;;;;;;;5.00;99.90;;;;;;5074885;28;19919;-64
2023/04/23 04:01:55;;;;;;;;;;;5.00;99.90;;;;;;5074844;28;19963;-65
2023/04/23 04:04:21;;;;;;;;;;;4.90;99.90;;;;;;5074697;28;19919;-65
2023/04/23 04:06:48;;;;;;;;;;;4.80;99.90;;;;;;5074462;28;20366;-64
2023/04/23 04:09:14;;;;;;;;;;;4.90;99.90;;;;;;5075758;28;19923;-65
2023/04/23 04:11:40;;;;;;;;;;;5.00;99.90;;;;;;5075896;28;19919;-64
2023/04/23 04:14:05;;;;;;;;;;;5.00;99.90;;;;;;5075840;28;19913;-64
2023/04/23 04:16:31;;;;;;;;;;;5.00;99.90;;;;;;5075722;28;19922;-65
2023/04/23 04:18:57;;;;;;;;;;;5.10;99.90;;;;;;5075716;28;20014;-64
2023/04/23 04:21:23;;;;;;;;;;;5.20;99.90;;;;;;5075724;28;19913;-64
2023/04/23 04:23:48;;;;;;;;;;;5.30;99.90;;;;;;5075784;28;19920;-64
2023/04/23 04:26:15;;;;;;;;;;;5.30;99.90;;;;;;5075603;28;19994;-64
2023/04/23 04:28:40;;;;;;;;;;;5.30;99.90;;;;;;5075781;28;19912;-65
2023/04/23 04:31:07;;;;;;;;;;;5.40;99.90;;;;;;5075741;28;19912;-64
2023/04/23 04:33:34;;;;;;;;;;;5.40;99.90;;;;;;5075441;28;19920;-64
2023/04/23 04:36:00;;;;;;;;;;;5.40;99.90;;;;;;5075248;28;19985;-64
2023/04/23 04:38:27;;;;;;;;;;;5.50;99.90;;;;;;5075346;28;20007;-64
2023/04/23 04:40:54;;;;;;;;;;;5.50;99.90;;;;;;5075415;28;20290;-65
2023/04/23 04:43:20;;;;;;;;;;;5.60;99.90;;;;;;5075272;28;20311;-64
2023/04/23 04:45:45;;;;;;;;;;;5.80;99.90;;;;;;5075406;28;19912;-64
2023/04/23 04:48:11;;;;;;;;;;;5.90;99.90;;;;;;5075237;28;19912;-64
2023/04/23 04:50:37;;;;;;;;;;;6.00;99.90;;;;;;5075054;28;19912;-64
2023/04/23 04:53:03;;;;;;;;;;;6.20;99.90;;;;;;5075520;28;19964;-64
2023/04/23 04:55:29;;;;;;;;;;;6.30;99.90;;;;;;5081284;28;19931;-64
2023/04/23 04:57:55;;;;;;;;;;;6.40;99.90;;;;;;5095382;28;19916;-64
2023/04/23 05:00:22;;;;;;;;;;;6.60;99.90;;;;;;5095430;28;19966;-64
2023/04/23 05:02:51;;;;;;;;;;;6.80;99.90;;;;;;5095178;28;20320;-64
2023/04/23 05:05:18;;;;;;;;;;;6.90;99.90;;;;;;5095328;28;19917;-64
2023/04/23 05:07:43;;;;;;;;;;;7.10;99.90;;;;;;5095353;28;20066;-64
2023/04/23 05:10:09;;;;;;;;;;;7.20;99.90;;;;;;5095243;28;20153;-64
2023/04/23 05:12:36;;;;;;;;;;;7.30;99.90;;;;;;5095214;28;19959;-65
2023/04/23 05:15:03;;;;;;;;;;;7.40;99.90;;;;;;5095191;28;19958;-65
2023/04/23 05:17:29;;;;;;;;;;;7.60;99.90;;;;;;5095018;28;19976;-65
2023/04/23 05:19:54;;;;;;;;;;;7.70;99.90;;;;;;5095199;28;20398;-65
2023/04/23 05:22:20;;;;;;;;;;;7.90;99.90;;;;;;5095165;28;20007;-65
2023/04/23 05:24:46;;;;;;;;;;;8.00;99.90;;;;;;5095015;28;19931;-65
2023/04/23 05:27:12;;;;;;;;;;;8.20;99.90;;;;;;5094978;28;19912;-65
2023/04/23 05:29:38;;;;;;;;;;;8.40;99.90;;;;;;5095031;28;19912;-65
2023/04/23 05:32:03;;;;;;;;;;;8.60;99.90;;;;;;5094904;28;19931;-65
2023/04/23 05:34:29;;;;;;;;;;;8.80;99.90;;;;;;5095038;28;19927;-65
2023/04/23 05:36:55;;;;;;;;;;;9.00;99.90;;;;;;5094976;28;19916;-65
2023/04/23 05:39:21;;;;;;;;;;;9.10;99.90;;;;;;5094911;28;20250;-65
2023/04/23 05:41:46;;;;;;;;;;;9.10;99.90;;;;;;5094884;28;20278;-65
2023/04/23 05:44:12;;;;;;;;;;;9.30;99.90;;;;;;5094830;28;19912;-65
2023/04/23 05:46:38;;;;;;;;;;;9.60;99.90;;;;;;5094813;28;19908;-65
2023/04/23 05:49:04;;;;;;;;;;;9.70;99.90;;;;;;5094912;28;19916;-65
2023/04/23 05:51:30;;;;;;;;;;;10.00;99.90;;;;;;5094736;28;20385;-65
2023/04/23 05:53:55;;;;;;;;;;;10.20;99.90;;;;;;5094899;28;19920;-65
2023/04/23 05:56:21;;;;;;;;;;;10.40;99.90;;;;;;5081071;28;20259;-65
2023/04/23 05:58:47;;;;;;;;;;;10.50;99.90;;;;;;5074599;28;20352;-65
2023/04/23 06:01:13;;;;;;;;;;;10.70;99.90;;;;;;5074597;28;19919;-65
2023/04/23 06:03:43;;;;;;;;;;;11.00;99.90;;;;;;5074498;28;19919;-65
2023/04/23 06:06:10;;;;;;;;;;;11.30;99.90;;;;;;5075941;28;19927;-65
2023/04/23 06:08:36;;;;;;;;;;;11.50;99.90;;;;;;5078157;28;19935;-65
2023/04/23 06:11:02;;;;;;;;;;;11.60;99.90;;;;;;5078306;28;19920;-65
2023/04/23 06:13:29;;;;;;;;;;;11.60;99.90;;;;;;5078329;28;19916;-65
2023/04/23 06:15:55;;;;;;;;;;;11.80;99.50;;;;;;5077887;28;19939;-65
2023/04/23 06:18:21;;;;;;;;;;;12.10;98.60;;;;;;5078258;28;20001;-65
2023/04/23 06:20:47;;;;;;;;;;;12.30;97.50;;;;;;5078061;28;20254;-65
2023/04/23 06:23:13;;;;;;;;;;;12.70;97.30;;;;;;5077866;28;20330;-65
2023/04/23 06:25:39;;;;;;;;;;;12.90;95.20;;;;;;5078109;28;20341;-65
2023/04/23 06:28:05;;;;;;;;;;;13.30;95.00;;;;;;5077996;28;19935;-64
2023/04/23 06:30:40;;;;;;;;;;;13.50;93.00;;;;;;5076600;28;19912;-64
2023/04/23 06:33:08;;;;;;;;;;;13.80;92.70;;;;;;5076520;28;20295;-64
2023/04/23 06:35:33;;;;;;;;;;;14.20;92.60;;;;;;5077743;28;19921;-64
2023/04/23 06:38:00;;;;;;;;;;;14.50;91.80;;;;;;5077794;28;20020;-64
2023/04/23 06:40:25;;;;;;;;;;;14.80;91.30;;;;;;5077712;28;19919;-64
2023/04/23 06:42:51;;;;;;;;;;;15.00;89.30;;;;;;5077647;28;19913;-64
2023/04/23 06:45:30;;;;;;;;;;;15.30;87.60;;;;;;5076334;28;19957;-64
2023/04/23 06:47:56;;;;;;;;;;;15.80;88.10;;;;;;5077627;28;19912;-64
2023/04/23 06:50:22;;;;;;;;;;;16.10;82.50;;;;;;5077432;28;19912;-64
2023/04/23 06:52:48;;;;;;;;;;;16.30;82.90;;;;;;5077458;28;19912;-64
2023/04/23 06:55:13;;;;;;;;;;;16.50;81.60;;;;;;5081366;28;20004;-64
2023/04/23 06:57:39;;;;;;;;;;;16.70;81.30;;;;;;5097523;28;19940;-65
2023/04/23 07:00:09;;;;;;;;;;;17.00;81.20;;;;;;5097458;28;20350;-64
2023/04/23 07:02:38;;;;;;;;;;;17.20;79.70;;;;;;5079040;28;20352;-64
2023/04/23 07:05:04;;;;;;;;;;;17.40;79.70;;;;;;5097463;28;19954;-64
2023/04/23 07:07:30;;;;;;;;;;;17.60;77.80;;;;;;5097700;28;20314;-64
2023/04/23 07:09:55;;;;;;;;;;;17.70;76.80;;;;;;5097390;28;20186;-65
2023/04/23 07:12:21;;;;;;;;;;;18.20;74.60;;;;;;5097282;28;20368;-64
2023/04/23 07:14:47;;;;;;;;;;;18.40;70.80;;;;;;5097229;28;19916;-65
2023/04/23 07:17:13;;;;;;;;;;;18.60;71.90;;;;;;5096126;28;19916;-65
2023/04/23 07:19:39;;;;;;;;;;;18.70;67.80;;;;;;5097036;28;20459;-65
2023/04/23 07:22:05;;;;;;;;;;;19.10;68.50;;;;;;5097264;28;19908;-65
2023/04/23 07:24:30;;;;;;;;;;;19.20;65.70;;;;;;5097096;28;19915;-65
2023/04/23 07:26:56;;;;;;;;;;;19.50;66.70;;;;;;5097254;28;19908;-65
2023/04/23 07:29:22;;;;;;;;;;;20.10;65.70;;;;;;5097180;28;19965;-65
2023/04/23 07:31:48;;;;;;;;;;;20.20;64.60;;;;;;5096926;28;19912;-65
2023/04/23 07:34:13;;;;;;;;;;;20.60;61.80;;;;;;5096854;28;20234;-65
2023/04/23 07:36:39;;;;;;;;;;;20.70;62.00;;;;;;5096869;28;20426;-65
2023/04/23 07:39:05;;;;;;;;;;;21.10;59.80;;;;;;5096733;28;19919;-65
2023/04/23 07:41:31;;;;;;;;;;;21.30;63.10;;;;;;5096747;28;20007;-65
2023/04/23 07:43:57;;;;;;;;;;;21.50;58.90;;;;;;5096757;28;19999;-65
2023/04/23 07:46:23;;;;;;;;;;;21.60;56.60;;;;;;5096774;28;19951;-65
2023/04/23 07:48:49;;;;;;;;;;;22.10;57.00;;;;;;5096555;28;20199;-65
2023/04/23 07:51:15;;;;;;;;;;;22.30;57.40;;;;;;5096535;28;19923;-65
2023/04/23 07:53:40;;;;;;;;;;;22.70;55.80;;;;;;5096507;28;20385;-65
2023/04/23 07:56:06;;;;;;;;;;;23.10;54.70;;;;;;5096280;28;19960;-65
2023/04/23 07:58:32;;;;;;;;;;;23.40;52.50;;;;;;5096424;28;20006;-65
2023/04/23 08:00:58;;;;;;;;;;;23.60;52.60;;;;;;5096335;28;19923;-65
2023/04/23 08:03:24;;;;;;;;;;;23.40;53.40;;;;;;5096187;28;19918;-65
2023/04/23 08:05:50;;;;;;;;;;;23.80;53.00;;;;;;5096303;28;20305;-65
2023/04/23 08:08:15;;;;;;;;;;;23.70;51.60;;;;;;5096037;28;19919;-65
2023/04/23 08:10:41;;;;;;;;;;;23.90;51.10;;;;;;5096161;28;19916;-65
2023/04/23 08:13:07;;;;;;;;;;;24.00;49.20;;;;;;5096078;28;19912;-65
2023/04/23 08:15:33;;;;;;;;;;;23.20;48.60;;;;;;5095912;28;19939;-65
2023/04/23 08:17:59;;;;;;;;;;;23.30;49.60;;;;;;5095946;28;20055;-65
2023/04/23 08:20:25;;;;;;;;;;;23.50;51.30;;;;;;5096048;28;19908;-65
2023/04/23 08:22:52;;;;;;;;;;;24.10;47.00;;;;;;5095904;28;19919;-66
2023/04/23 08:25:19;;;;;;;;;;;24.20;47.50;;;;;;5095955;28;19912;-65
2023/04/23 08:27:45;;;;;;;;;;;24.90;50.40;;;;;;5095855;28;20267;-65
2023/04/23 08:30:11;;;;;;;;;;;25.10;48.10;;;;;;5095514;28;19966;-66
2023/04/23 08:32:40;;;;;;;;;;;25.10;46.00;;;;;;5095829;28;20285;-66
2023/04/23 08:35:06;;;;;;;;;;;24.00;48.80;;;;;;5095733;28;19916;-66
2023/04/23 08:37:32;;;;;;;;;;;24.80;48.50;;;;;;5095511;28;20018;-66
2023/04/23 08:39:59;;;;;;;;;;;24.90;47.40;;;;;;5095644;28;20388;-66
2023/04/23 08:42:41;;;;;;;;;;;25.50;44.20;;;;;;5095626;28;19912;-66
2023/04/23 08:45:07;;;;;;;;;;;25.70;42.70;;;;;;5095623;28;19913;-66
2023/04/23 08:47:34;;;;;;;;;;;26.30;43.70;;;;;;5095668;28;20369;-66
2023/04/23 08:50:00;;;;;;;;;;;26.50;43.00;;;;;;5095424;28;19916;-66
2023/04/23 08:52:28;;;;;;;;;;;26.50;42.60;;;;;;5095477;28;19938;-66
2023/04/23 08:54:58;;;;;;;;;;;25.20;40.40;;;;;;5095358;28;19919;-65
2023/04/23 08:57:24;;;;;;;;;;;25.60;43.10;;;;;;5095415;28;19923;-66
2023/04/23 08:59:50;;;;;;;;;;;26.00;41.60;;;;;;5095716;28;19912;-66
2023/04/23 09:02:16;;;;;;;;;;;26.20;42.90;;;;;;5095142;28;19922;-66
2023/04/23 09:04:41;;;;;;;;;;;26.30;41.60;;;;;;5095213;28;19912;-66
2023/04/23 09:07:10;;;;;;;;;;;26.30;40.90;;;;;;5095240;28;19912;-66
2023/04/23 09:09:37;;;;;;;;;;;26.30;41.10;;;;;;5095161;28;19962;-65
2023/04/23 09:12:04;;;;;;;;;;;26.70;41.30;;;;;;5077130;28;19957;-66
2023/04/23 09:14:30;;;;;;;;;;;26.90;39.30;;;;;;5094930;28;19926;-66
2023/04/23 09:16:55;;;;;;;;;;;26.80;39.70;;;;;;5094999;28;19916;-65
2023/04/23 09:19:22;;;;;;;;;;;26.90;38.80;;;;;;5095062;28;19961;-66
2023/04/23 09:21:48;;;;;;;;;;;27.50;39.60;;;;;;5095199;28;19918;-65
2023/04/23 09:24:15;;;;;;;;;;;26.80;37.70;;;;;;5095084;28;19916;-66
2023/04/23 09:26:45;;;;;;;;;;;27.40;41.50;;;;;;5094882;28;20320;-65
2023/04/23 09:29:22;;;;;;;;;;;28.00;38.10;;;;;;5095036;28;19912;-66
2023/04/23 09:31:49;;;;;;;;;;;28.10;36.40;;;;;;5094773;28;20386;-66
2023/04/23 09:34:18;;;;;;;;;;;27.40;36.40;;;;;;5095401;28;19912;-66
2023/04/23 09:36:45;;;;;;;;;;;27.40;37.90;;;;;;5076831;28;19927;-66
2023/04/23 09:39:12;;;;;;;;;;;27.20;35.90;;;;;;5094930;28;19918;-66
2023/04/23 09:41:38;;;;;;;;;;;27.50;38.30;;;;;;5097490;28;19958;-65
2023/04/23 09:44:04;;;;;;;;;;;27.90;38.50;;;;;;5098906;28;19912;-66
2023/04/23 09:46:36;;;;;;;;;;;28.00;35.50;;;;;;5098997;28;20335;-66
2023/04/23 09:49:03;;;;;;;;;;;28.00;35.60;;;;;;5098972;28;19977;-65
2023/04/23 09:51:29;;;;;;;;;;;28.60;38.60;;;;;;5098794;28;19920;-66
2023/04/23 09:53:55;;;;;;;;;;;28.90;37.60;;;;;;5098865;28;19916;-66
2023/04/23 09:56:21;;;;;;;;;;;28.70;37.20;;;;;;5098609;28;19920;-66
2023/04/23 09:58:47;;;;;;;;;;;28.10;36.10;;;;;;5098737;28;19912;-66
2023/04/23 10:01:14;;;;;;;;;;;28.30;38.90;;;;;;5098757;28;19912;-66
2023/04/23 10:03:43;;;;;;;;;;;28.40;37.20;;;;;;5098613;28;19920;-66
2023/04/23 10:06:14;;;;;;;;;;;28.70;38.40;;;;;;5098720;28;19965;-66
2023/04/23 10:08:40;;;;;;;;;;;28.00;36.80;;;;;;5098544;28;20213;-66
2023/04/23 10:11:06;;;;;;;;;;;28.10;36.10;;;;;;5098499;28;20281;-66
2023/04/23 10:13:35;;;;;;;;;;;27.80;38.20;;;;;;5098363;28;20012;-66
2023/04/23 10:16:02;;;;;;;;;;;28.60;37.80;;;;;;5098315;28;19916;-66
2023/04/23 10:18:30;;;;;;;;;;;29.00;38.90;;;;;;5098269;28;19912;-65
2023/04/23 10:20:56;;;;;;;;;;;29.50;37.90;;;;;;5098302;28;19908;-66
2023/04/23 10:23:22;;;;;;;;;;;28.90;36.90;;;;;;5098454;28;20250;-65
2023/04/23 10:25:49;;;;;;;;;;;29.40;37.40;;;;;;5097988;28;20377;-65
2023/04/23 10:28:16;;;;;;;;;;;29.30;37.70;;;;;;5098219;28;19962;-65
2023/04/23 10:30:43;;;;;;;;;;;29.30;37.50;;;;;;5098180;28;20281;-65
2023/04/23 10:33:11;;;;;;;;;;;29.50;37.50;;;;;;5098137;28;19919;-66
2023/04/23 10:35:37;;;;;;;;;;;29.80;38.40;;;;;;5098057;28;19971;-65
2023/04/23 10:38:03;;;;;;;;;;;29.60;35.90;;;;;;5097960;28;20221;-65
2023/04/23 10:40:31;;;;;;;;;;;28.70;38.60;;;;;;5097776;28;20024;-65
2023/04/23 10:42:57;;;;;;;;;;;29.00;38.10;;;;;;5097950;28;19908;-66
2023/04/23 10:45:22;;;;;;;;;;;28.60;37.90;;;;;;5097843;28;19912;-65
2023/04/23 10:47:48;;;;;;;;;;;29.00;37.60;;;;;;5097977;28;19912;-65
2023/04/23 10:50:18;;;;;;;;;;;29.10;35.80;;;;;;5097802;28;20031;-65
2023/04/23 10:52:45;;;;;;;;;;;29.60;37.80;;;;;;5097619;28;19919;-65
2023/04/23 10:55:15;;;;;;;;;;;29.90;35.80;;;;;;5097689;28;19920;-65
2023/04/23 10:58:00;;;;;;;;;;;29.80;37.10;;;;;;5097766;28;19912;-65
2023/04/23 11:00:26;;;;;;;;;;;29.90;36.80;;;;;;5097673;28;19919;-65
2023/04/23 11:02:52;;;;;;;;;;;29.90;37.70;;;;;;5097682;28;19924;-66
2023/04/23 11:05:18;;;;;;;;;;;30.40;37.60;;;;;;5097511;28;19985;-66
2023/04/23 11:08:01;;;;;;;;;;;30.40;36.80;;;;;;5097350;28;19912;-66
2023/04/23 11:10:27;;;;;;;;;;;30.50;35.80;;;;;;5097484;28;20276;-66
2023/04/23 11:12:54;;;;;;;;;;;30.50;36.70;;;;;;5097316;28;19912;-65
2023/04/23 11:15:20;;;;;;;;;;;30.20;37.30;;;;;;5097175;28;19912;-65
2023/04/23 11:17:47;;;;;;;;;;;30.50;35.30;;;;;;5097316;28;20427;-66
2023/04/23 11:20:14;;;;;;;;;;;30.80;35.70;;;;;;5097146;28;19916;-66
2023/04/23 11:22:44;;;;;;;;;;;30.50;35.20;;;;;;5097322;28;20288;-66
2023/04/23 11:25:11;;;;;;;;;;;30.10;37.00;;;;;;5097198;28;20407;-65
2023/04/23 11:27:42;;;;;;;;;;;30.40;34.10;;;;;;5097183;28;19912;-65
2023/04/23 11:30:15;;;;;;;;;;;30.20;35.70;;;;;;5097159;28;20419;-66
2023/04/23 11:32:43;;;;;;;;;;;30.00;36.80;;;;;;5097003;28;19923;-66
2023/04/23 11:35:09;;;;;;;;;;;30.20;35.30;;;;;;5097324;28;19912;-66
2023/04/23 11:37:42;;;;;;;;;;;30.50;34.00;;;;;;5096967;28;19924;-66
2023/04/23 11:40:09;;;;;;;;;;;29.70;34.90;;;;;;5096992;28;19912;-66
2023/04/23 11:42:48;;;;;;;;;;;29.70;37.50;;;;;;5096909;28;19927;-66
2023/04/23 11:45:14;;;;;;;;;;;30.10;35.80;;;;;;5096911;28;19942;-66
2023/04/23 11:47:40;;;;;;;;;;;29.60;33.90;;;;;;5096730;28;19920;-66
2023/04/23 11:50:06;;;;;;;;;;;29.50;35.30;;;;;;5096784;28;19908;-66
2023/04/23 11:52:32;;;;;;;;;;;29.60;35.30;;;;;;5096454;28;19955;-66
2023/04/23 11:55:01;;;;;;;;;;;29.70;36.10;;;;;;5096428;28;20740;-66
2023/04/23 11:57:27;;;;;;;;;;;29.70;35.60;;;;;;5096434;28;20480;-66
2023/04/23 11:59:53;;;;;;;;;;;29.80;34.70;;;;;;5096591;28;20343;-66
2023/04/23 12:02:22;;;;;;;;;;;29.60;34.00;;;;;;5096325;28;19908;-66
2023/04/23 12:04:48;;;;;;;;;;;29.60;36.90;;;;;;5095756;28;19912;-66
2023/04/23 12:07:14;;;;;;;;;;;29.90;34.40;;;;;;5096392;28;20003;-66
2023/04/23 12:09:39;;;;;;;;;;;29.40;35.80;;;;;;5096175;28;19919;-66
2023/04/23 12:12:05;;;;;;;;;;;29.10;36.90;;;;;;5096186;28;19912;-66
2023/04/23 12:14:32;;;;;;;;;;;29.50;37.50;;;;;;5096246;28;19912;-66
2023/04/23 12:17:07;;;;;;;;;;;29.70;35.40;;;;;;5096260;28;19916;-65
2023/04/23 12:19:33;;;;;;;;;;;29.70;36.00;;;;;;5095973;28;19912;-66
2023/04/23 12:22:00;;;;;;;;;;;29.70;36.40;;;;;;5096073;28;19916;-66
2023/04/23 12:24:27;;;;;;;;;;;29.90;34.90;;;;;;5096074;28;19998;-66
2023/04/23 12:26:53;;;;;;;;;;;30.10;34.40;;;;;;5096001;28;20373;-66
2023/04/23 12:29:20;;;;;;;;;;;29.90;36.30;;;;;;5095970;28;19908;-66
2023/04/23 12:31:46;;;;;;;;;;;30.20;37.40;;;;;;5095810;28;19983;-66
2023/04/23 12:34:15;;;;;;;;;;;30.40;38.00;;;;;;5095769;28;19955;-66
2023/04/23 12:36:44;;;;;;;;;;;30.70;37.90;;;;;;5095847;28;19916;-66
2023/04/23 12:39:20;;;;;;;;;;;30.10;33.30;;;;;;5095642;28;19922;-66
2023/04/23 12:41:46;;;;;;;;;;;30.20;36.60;;;;;;5095646;28;19919;-66
2023/04/23 12:44:12;;;;;;;;;;;30.60;37.70;;;;;;5095754;28;19912;-66
2023/04/23 12:46:38;;;;;;;;;;;30.60;36.60;;;;;;5095509;28;19908;-66
2023/04/23 12:49:04;;;;;;;;;;;30.20;37.20;;;;;;5095590;28;19934;-66
2023/04/23 12:51:29;;;;;;;;;;;30.50;36.90;;;;;;5095534;28;19931;-66
2023/04/23 12:53:55;;;;;;;;;;;30.00;34.90;;;;;;5095389;28;19934;-66
2023/04/23 12:56:21;;;;;;;;;;;29.10;36.40;;;;;;5095258;28;20132;-66
2023/04/23 12:58:47;;;;;;;;;;;28.80;39.10;;;;;;5095613;28;19916;-66
2023/04/23 13:01:13;;;;;;;;;;;29.10;37.80;;;;;;5095401;28;19939;-66
2023/04/23 13:03:39;;;;;;;;;;;29.80;38.10;;;;;;5095323;28;19912;-66
2023/04/23 13:06:06;;;;;;;;;;;29.70;36.40;;;;;;5095334;28;19923;-66
2023/04/23 13:08:32;;;;;;;;;;;29.70;34.80;;;;;;5095097;28;19915;-66
2023/04/23 13:10:59;;;;;;;;;;;29.10;36.60;;;;;;5095474;28;20425;-66
2023/04/23 13:13:26;;;;;;;;;;;29.10;34.60;;;;;;5095214;28;20359;-66
2023/04/23 13:15:52;;;;;;;;;;;28.30;35.00;;;;;;5094043;28;19959;-66
2023/04/23 13:18:18;;;;;;;;;;;28.70;38.00;;;;;;5095010;28;19912;-66
2023/04/23 13:20:44;;;;;;;;;;;28.40;40.30;;;;;;5095042;28;19962;-66
2023/04/23 13:23:11;;;;;;;;;;;28.50;39.80;;;;;;5095077;28;19920;-66
2023/04/23 13:25:36;;;;;;;;;;;28.50;40.50;;;;;;5095083;28;20394;-66
2023/04/23 13:28:02;;;;;;;;;;;28.50;39.60;;;;;;5094956;28;20001;-66
2023/04/23 13:30:28;;;;;;;;;;;28.50;38.70;;;;;;5094883;28;19923;-66
2023/04/23 13:32:56;;;;;;;;;;;27.80;37.40;;;;;;5095191;28;19918;-66
2023/04/23 13:35:22;;;;;;;;;;;27.80;39.70;;;;;;5094955;28;19919;-66
2023/04/23 13:37:48;;;;;;;;;;;27.70;37.30;;;;;;5094853;28;19934;-66
2023/04/23 13:40:14;;;;;;;;;;;27.10;39.70;;;;;;5094916;28;19916;-66
2023/04/23 13:42:40;;;;;;;;;;;27.00;40.90;;;;;;5095054;28;19922;-66
2023/04/23 13:45:06;;;;;;;;;;;27.40;37.80;;;;;;5094798;28;20049;-66
2023/04/23 13:47:33;;;;;;;;;;;27.20;37.20;;;;;;5095001;28;20316;-66
2023/04/23 13:50:04;;;;;;;;;;;27.30;39.70;;;;;;5094872;28;20354;-66
2023/04/23 13:52:30;;;;;;;;;;;27.60;40.30;;;;;;5094597;28;19916;-66
2023/04/23 13:54:56;;;;;;;;;;;27.70;38.40;;;;;;5094633;28;20050;-66
2023/04/23 13:57:22;;;;;;;;;;;27.80;37.60;;;;;;5094840;28;19962;-66
2023/04/23 13:59:48;;;;;;;;;;;27.70;40.00;;;;;;5094907;28;20010;-66
2023/04/23 14:02:14;;;;;;;;;;;27.50;39.80;;;;;;5094607;28;19974;-66
2023/04/23 14:04:40;;;;;;;;;;;27.60;39.80;;;;;;5094865;28;19916;-66
2023/04/23 14:07:06;;;;;;;;;;;27.60;37.70;;;;;;5094520;28;19992;-66
2023/04/23 14:09:31;;;;;;;;;;;27.50;38.50;;;;;;5094430;28;19919;-66
2023/04/23 14:11:57;;;;;;;;;;;27.70;40.50;;;;;;5095002;28;20293;-66
2023/04/23 14:14:23;;;;;;;;;;;27.70;39.20;;;;;;5094405;28;19908;-66
2023/04/23 14:16:49;;;;;;;;;;;27.90;39.40;;;;;;5094466;28;20017;-66
2023/04/23 14:19:15;;;;;;;;;;;27.70;37.60;;;;;;5094522;28;19916;-66